Time;durP1;ratioP1;P1;durP2;ratioP2;P2;SDS_P1;SDS_P2;PMS_P1;PMS_P2;Temp;Humidity;BMP_temperature;BMP_pressure;BME280_temperature;BME280_humidity;BME280_pressure;Samples;Min_cycle;Max_cycle;Signal;HPM_P1;HPM_P2
2023/01/28 00:00:32;;;;;;;46.45;28.92;;;1.40;99.90;;;;;;5054512;28;20021;-72
2023/01/28 00:02:59;;;;;;;44.47;28.52;;;1.40;99.90;;;;;;5053959;28;20056;-72
2023/01/28 00:05:25;;;;;;;48.65;30.45;;;1.40;99.90;;;;;;5053676;28;20024;-72
2023/01/28 00:07:51;;;;;;;46.35;30.55;;;1.40;99.90;;;;;;5053766;28;20078;-71
2023/01/28 00:10:17;;;;;;;43.80;27.40;;;1.50;99.90;;;;;;5054031;28;20082;-71
2023/01/28 00:12:43;;;;;;;46.88;30.50;;;1.40;99.90;;;;;;5054074;28;20020;-72
2023/01/28 00:15:10;;;;;;;48.83;30.73;;;1.40;99.90;;;;;;5054042;28;20033;-72
2023/01/28 00:17:36;;;;;;;46.10;28.40;;;1.40;99.90;;;;;;5037346;28;20045;-72
2023/01/28 00:20:03;;;;;;;48.80;29.13;;;1.40;99.90;;;;;;5053689;28;20052;-72
2023/01/28 00:22:30;;;;;;;44.88;29.33;;;1.40;99.90;;;;;;5053694;28;20060;-72
2023/01/28 00:24:56;;;;;;;48.63;30.27;;;1.40;99.90;;;;;;5053696;28;20032;-72
2023/01/28 00:27:22;;;;;;;48.33;29.92;;;1.40;99.90;;;;;;5053978;28;20021;-73
2023/01/28 00:29:48;;;;;;;49.67;28.63;;;1.40;99.90;;;;;;5053764;28;20021;-72
2023/01/28 00:32:14;;;;;;;52.28;28.90;;;1.40;99.90;;;;;;5052520;28;20393;-71
2023/01/28 00:34:40;;;;;;;46.13;29.20;;;1.40;99.90;;;;;;5053704;28;20032;-72
2023/01/28 00:37:06;;;;;;;48.50;26.50;;;1.40;99.90;;;;;;5052345;28;20364;-73
2023/01/28 00:39:32;;;;;;;47.50;29.52;;;1.40;99.90;;;;;;5051805;28;20060;-73
2023/01/28 00:42:00;;;;;;;44.47;27.90;;;1.40;99.90;;;;;;5053649;28;20031;-71
2023/01/28 00:44:26;;;;;;;47.25;29.05;;;1.40;99.90;;;;;;5053630;28;20468;-72
2023/01/28 00:46:52;;;;;;;49.95;28.65;;;1.50;99.90;;;;;;5052283;28;20067;-72
2023/01/28 00:49:21;;;;;;;45.42;29.20;;;1.50;99.90;;;;;;5052839;28;20025;-72
2023/01/28 00:51:47;;;;;;;46.33;29.50;;;1.50;99.90;;;;;;5053428;28;20071;-72
2023/01/28 00:54:15;;;;;;;45.53;28.30;;;1.50;99.90;;;;;;5044616;28;20029;-73
2023/01/28 00:56:40;;;;;;;48.45;28.15;;;1.50;99.90;;;;;;5043809;28;20392;-72
2023/01/28 00:59:06;;;;;;;42.85;26.40;;;1.50;99.90;;;;;;5043933;28;20040;-72
2023/01/28 01:01:32;;;;;;;45.40;28.05;;;1.50;99.90;;;;;;5041147;28;20026;-72
2023/01/28 01:04:04;;;;;;;44.47;27.48;;;1.50;99.90;;;;;;5043361;28;20103;-73
2023/01/28 01:06:36;;;;;;;44.95;28.30;;;1.50;99.90;;;;;;5050396;28;20029;-72
2023/01/28 01:09:09;;;;;;;44.05;26.33;;;1.50;99.90;;;;;;5048333;28;20478;-71
2023/01/28 01:11:35;;;;;;;41.25;25.55;;;1.50;99.90;;;;;;5051845;28;20090;-73
2023/01/28 01:14:02;;;;;;;48.70;27.38;;;1.50;99.90;;;;;;5046397;28;20041;-73
2023/01/28 01:16:32;;;;;;;47.47;28.63;;;1.50;99.90;;;;;;5059815;28;20034;-72
2023/01/28 01:18:59;;;;;;;47.13;27.55;;;1.50;99.90;;;;;;5058729;28;20107;-72
2023/01/28 01:21:26;;;;;;;46.63;27.40;;;1.50;99.90;;;;;;5051905;28;20033;-71
2023/01/28 01:23:52;;;;;;;46.67;27.75;;;1.50;99.90;;;;;;5052844;28;20052;-72
2023/01/28 01:26:19;;;;;;;44.38;27.23;;;1.50;99.90;;;;;;5051050;28;20461;-72
2023/01/28 01:28:45;;;;;;;47.17;26.83;;;1.50;99.90;;;;;;5053080;28;20021;-72
2023/01/28 01:31:14;;;;;;;49.22;28.17;;;1.50;99.90;;;;;;5052460;28;20146;-72
2023/01/28 01:33:42;;;;;;;50.35;27.77;;;1.50;99.90;;;;;;5052797;28;20055;-72
2023/01/28 01:36:08;;;;;;;48.40;27.42;;;1.60;99.90;;;;;;5050647;28;20599;-72
2023/01/28 01:38:35;;;;;;;51.20;30.50;;;1.50;99.90;;;;;;5052955;28;20071;-71
2023/01/28 01:41:02;;;;;;;49.50;27.95;;;1.50;99.90;;;;;;5059766;28;20106;-72
2023/01/28 01:43:47;;;;;;;49.47;28.23;;;1.50;99.90;;;;;;5058327;28;20036;-71
2023/01/28 01:46:16;;;;;;;49.28;28.00;;;1.50;99.90;;;;;;5050316;28;20021;-71
2023/01/28 01:48:43;;;;;;;48.30;29.13;;;1.50;99.90;;;;;;5052286;28;20021;-73
2023/01/28 01:51:17;;;;;;;49.00;27.75;;;1.50;99.90;;;;;;5052563;28;20396;-71
2023/01/28 01:53:48;;;;;;;50.08;28.60;;;1.50;99.90;;;;;;5052721;28;20107;-71
2023/01/28 01:56:18;;;;;;;50.88;28.67;;;1.50;99.90;;;;;;5049893;28;20214;-72
2023/01/28 01:58:49;;;;;;;57.15;31.05;;;1.50;99.90;;;;;;5050757;28;20039;-72
2023/01/28 02:01:16;;;;;;;50.28;27.75;;;1.50;99.90;;;;;;5050629;28;20021;-73
2023/01/28 02:04:22;;;;;;;51.97;29.90;;;1.50;99.90;;;;;;5050930;28;20033;-72
2023/01/28 02:06:48;;;;;;;50.63;27.70;;;1.50;99.90;;;;;;4991530;28;20026;-72
2023/01/28 02:09:30;;;;;;;49.80;27.52;;;1.50;99.90;;;;;;5000186;28;20116;-72
2023/01/28 02:12:00;;;;;;;53.50;30.60;;;1.50;99.90;;;;;;5003311;28;20069;-71
2023/01/28 02:14:29;;;;;;;55.80;30.10;;;1.60;99.90;;;;;;5008931;28;20041;-73
2023/01/28 02:16:54;;;;;;;53.38;29.27;;;1.50;99.90;;;;;;5008655;28;20025;-73
2023/01/28 02:19:26;;;;;;;50.70;30.52;;;1.50;99.90;;;;;;5000483;28;20047;-73
2023/01/28 02:22:04;;;;;;;50.42;28.27;;;1.60;99.90;;;;;;4998662;28;20167;-72
2023/01/28 02:24:38;;;;;;;51.47;28.33;;;1.60;99.90;;;;;;4984461;28;20026;-73
2023/01/28 02:27:16;;;;;;;53.45;28.85;;;1.50;99.90;;;;;;5000127;28;20044;-72
2023/01/28 02:30:06;;;;;;;48.70;28.17;;;1.60;99.90;;;;;;5008589;28;20032;-73
2023/01/28 02:32:56;;;;;;;51.25;30.23;;;1.60;99.90;;;;;;5001250;28;20041;-73
2023/01/28 02:35:31;;;;;;;46.38;27.00;;;1.60;99.90;;;;;;4992623;28;20034;-72
2023/01/28 02:38:10;;;;;;;46.05;29.55;;;1.60;99.90;;;;;;4997894;28;20129;-72
2023/01/28 02:43:32;;;;;;;48.67;28.90;;;1.50;99.90;;;;;;5048427;28;20457;-72
2023/01/28 02:48:43;;;;;;;56.45;33.25;;;1.60;99.90;;;;;;5065940;28;20113;-72
2023/01/28 02:51:26;;;;;;;52.17;32.08;;;1.60;99.90;;;;;;5050485;28;20415;-73
2023/01/28 02:54:17;;;;;;;56.13;32.65;;;1.50;99.90;;;;;;5048199;28;20025;-73
2023/01/28 02:56:46;;;;;;;54.28;30.88;;;1.60;99.90;;;;;;5066146;28;20032;-73
2023/01/28 02:59:35;;;;;;;51.13;31.08;;;1.60;99.90;;;;;;5046535;28;20033;-72
2023/01/28 03:02:27;;;;;;;56.03;30.42;;;1.60;99.90;;;;;;5063903;28;20025;-72
2023/01/28 03:05:22;;;;;;;54.60;31.20;;;1.60;99.90;;;;;;5049580;28;20377;-73
2023/01/28 03:07:49;;;;;;;50.72;29.63;;;1.60;99.90;;;;;;5035128;28;20044;-72
2023/01/28 03:10:19;;;;;;;48.58;27.45;;;1.60;99.90;;;;;;5047997;28;20045;-73
2023/01/28 03:39:12;;;;;;;;;;;1.50;99.90;;;;;;5049539;28;20049;-72
2023/01/28 03:41:38;;;;;;;49.38;29.92;;;1.50;99.90;;;;;;5051109;28;19916;-73
2023/01/28 03:46:51;;;;;;;51.65;30.35;;;1.50;99.90;;;;;;5066585;28;20040;-73
2023/01/28 03:49:17;;;;;;;54.30;30.83;;;1.50;99.90;;;;;;5066588;28;20032;-73
2023/01/28 03:51:45;;;;;;;50.08;30.48;;;1.50;99.90;;;;;;5066640;28;20555;-73
2023/01/28 03:54:12;;;;;;;54.38;30.83;;;1.50;99.90;;;;;;5066020;28;20017;-73
2023/01/28 03:56:39;;;;;;;56.45;31.08;;;1.60;99.90;;;;;;5050020;28;20051;-73
2023/01/28 03:59:06;;;;;;;50.55;30.42;;;1.50;99.90;;;;;;5052547;28;20040;-73
2023/01/28 04:01:32;;;;;;;49.78;30.60;;;1.60;99.90;;;;;;5053314;28;20021;-73
2023/01/28 04:03:58;;;;;;;49.28;31.50;;;1.60;99.90;;;;;;5041127;28;20151;-73
2023/01/28 04:06:27;;;;;;;54.67;31.50;;;1.50;99.90;;;;;;5052902;28;20021;-73
2023/01/28 04:08:58;;;;;;;49.35;31.27;;;1.50;99.90;;;;;;5056963;28;20083;-72
2023/01/28 04:11:32;;;;;;;57.15;33.03;;;1.60;99.90;;;;;;5054349;28;20033;-73
2023/01/28 04:14:01;;;;;;;51.53;31.83;;;1.60;99.90;;;;;;5069400;28;20029;-73
2023/01/28 04:16:37;;;;;;;49.78;30.00;;;1.60;99.90;;;;;;5065486;28;20106;-72
2023/01/28 04:19:03;;;;;;;52.25;31.00;;;1.50;99.90;;;;;;5063923;28;20468;-73
2023/01/28 04:21:33;;;;;;;54.72;32.15;;;1.50;99.90;;;;;;5069664;28;20056;-72
2023/01/28 04:24:03;;;;;;;51.97;30.52;;;1.60;99.90;;;;;;5069582;28;20052;-73
2023/01/28 04:26:29;;;;;;;53.20;32.05;;;1.60;99.90;;;;;;5053465;28;20112;-72
2023/01/28 04:28:55;;;;;;;55.65;33.42;;;1.60;99.90;;;;;;5053760;28;20115;-73
2023/01/28 04:31:22;;;;;;;53.25;31.40;;;1.50;99.90;;;;;;5069601;28;20480;-72
2023/01/28 04:34:23;;;;;;;52.05;32.38;;;1.60;99.90;;;;;;5043291;28;20048;-73
2023/01/28 04:37:09;;;;;;;57.45;31.63;;;1.60;99.90;;;;;;5031751;28;20386;-72
2023/01/28 04:40:04;;;;;;;53.17;31.80;;;1.50;99.90;;;;;;5031264;28;20033;-73
2023/01/28 04:42:40;;;;;;;47.58;29.27;;;1.60;99.90;;;;;;5032088;28;20050;-72
2023/01/28 04:45:24;;;;;;;52.17;29.70;;;1.60;99.90;;;;;;5031988;28;20063;-73
2023/01/28 04:47:58;;;;;;;56.80;31.45;;;1.60;99.90;;;;;;5031439;28;20037;-72
2023/01/28 04:50:50;;;;;;;54.28;29.75;;;1.60;99.90;;;;;;5030555;28;20053;-72
2023/01/28 04:53:33;;;;;;;48.97;29.17;;;1.60;99.90;;;;;;5031643;28;20030;-72
2023/01/28 04:56:06;;;;;;;51.43;31.23;;;1.60;99.90;;;;;;5031363;28;20239;-73
2023/01/28 04:58:33;;;;;;;51.22;30.88;;;1.60;99.90;;;;;;5031511;28;20493;-74
2023/01/28 05:01:04;;;;;;;54.50;30.02;;;1.50;99.90;;;;;;5031259;28;20085;-73
2023/01/28 05:03:31;;;;;;;53.15;31.63;;;1.60;99.90;;;;;;5031395;28;20029;-73
2023/01/28 05:05:57;;;;;;;52.28;30.77;;;1.60;99.90;;;;;;5031576;28;20048;-73
2023/01/28 05:08:45;;;;;;;57.25;31.67;;;1.60;99.90;;;;;;5031386;28;20116;-73
2023/01/28 05:11:12;;;;;;;57.70;31.50;;;1.60;99.90;;;;;;5030570;28;20018;-74
2023/01/28 05:13:38;;;;;;;51.55;32.10;;;1.60;99.90;;;;;;5036388;28;20107;-73
2023/01/28 05:16:06;;;;;;;51.08;31.42;;;1.50;99.90;;;;;;5051890;28;20464;-74
2023/01/28 05:18:32;;;;;;;56.67;32.95;;;1.60;99.90;;;;;;5068378;28;20044;-74
2023/01/28 05:21:07;;;;;;;58.80;33.22;;;1.60;99.90;;;;;;5068003;28;20024;-73
2023/01/28 05:23:35;;;;;;;53.65;31.52;;;1.50;99.90;;;;;;5052151;28;20379;-74
2023/01/28 05:26:01;;;;;;;56.25;32.88;;;1.60;99.90;;;;;;5052790;28;20010;-73
2023/01/28 05:28:28;;;;;;;55.70;33.88;;;1.60;99.90;;;;;;5068567;28;20056;-73
2023/01/28 05:30:56;;;;;;;54.45;34.83;;;1.60;99.90;;;;;;5068523;28;20024;-74
2023/01/28 05:33:21;;;;;;;60.67;34.90;;;1.60;99.90;;;;;;5049245;28;20476;-73
2023/01/28 05:35:48;;;;;;;58.13;33.42;;;1.60;99.90;;;;;;5041361;28;20364;-73
2023/01/28 05:38:15;;;;;;;52.25;31.17;;;1.60;99.90;;;;;;5036762;28;20034;-73
2023/01/28 05:40:41;;;;;;;56.80;31.92;;;1.60;99.90;;;;;;5049854;28;20074;-73
2023/01/28 05:43:08;;;;;;;52.92;32.58;;;1.60;99.90;;;;;;5066541;28;20029;-73
2023/01/28 05:45:43;;;;;;;52.40;32.47;;;1.60;99.90;;;;;;5052009;28;20025;-70
2023/01/28 05:48:27;;;;;;;53.47;30.45;;;1.60;99.90;;;;;;5052608;28;20494;-73
2023/01/28 05:51:10;;;;;;;61.05;34.28;;;1.60;99.90;;;;;;5067978;28;20034;-72
2023/01/28 05:53:38;;;;;;;61.03;35.35;;;1.60;99.90;;;;;;5067282;28;20037;-73
2023/01/28 05:56:06;;;;;;;59.47;33.88;;;1.60;99.90;;;;;;5052369;28;20021;-74
2023/01/28 05:58:33;;;;;;;63.70;37.03;;;1.60;99.90;;;;;;5067485;28;20044;-73
2023/01/28 06:01:02;;;;;;;61.08;37.47;;;1.60;99.90;;;;;;5051092;28;20025;-72
2023/01/28 06:03:37;;;;;;;56.78;33.78;;;1.60;99.90;;;;;;5051113;28;20039;-73
2023/01/28 06:06:03;;;;;;;61.05;36.65;;;1.60;99.90;;;;;;5066404;28;20474;-73
2023/01/28 06:08:30;;;;;;;54.78;34.22;;;1.60;99.90;;;;;;5067497;28;20033;-73
2023/01/28 06:10:57;;;;;;;60.58;34.20;;;1.60;99.90;;;;;;5067716;28;20422;-73
2023/01/28 06:13:24;;;;;;;55.35;35.10;;;1.60;99.90;;;;;;5067591;28;20488;-73
2023/01/28 06:16:08;;;;;;;57.30;33.88;;;1.70;99.90;;;;;;5051876;28;20090;-73
2023/01/28 06:18:57;;;;;;;59.28;34.92;;;1.60;99.90;;;;;;5069356;28;20186;-73
2023/01/28 06:21:23;;;;;;;57.95;35.25;;;1.60;99.90;;;;;;5069504;28;20052;-73
2023/01/28 06:23:49;;;;;;;53.53;33.08;;;1.60;99.90;;;;;;5069818;28;20063;-73
2023/01/28 06:26:15;;;;;;;55.17;31.52;;;1.60;99.90;;;;;;5069416;28;20550;-73
2023/01/28 06:28:43;;;;;;;55.42;31.63;;;1.70;99.90;;;;;;5049806;28;20029;-73
2023/01/28 06:31:09;;;;;;;48.35;31.58;;;1.60;99.90;;;;;;5069843;28;20614;-73
2023/01/28 06:33:35;;;;;;;57.85;35.63;;;1.70;99.90;;;;;;5069717;28;20055;-73
2023/01/28 06:36:05;;;;;;;61.58;34.03;;;1.70;99.90;;;;;;5069684;28;20523;-73
2023/01/28 06:38:31;;;;;;;57.95;33.67;;;1.70;99.90;;;;;;5069329;28;20127;-73
2023/01/28 06:40:57;;;;;;;57.42;34.22;;;1.70;99.90;;;;;;5069901;28;20040;-73
2023/01/28 06:43:27;;;;;;;58.35;34.38;;;1.70;99.90;;;;;;5069526;28;20040;-73
2023/01/28 06:45:53;;;;;;;55.30;34.03;;;1.70;99.90;;;;;;5069736;28;20033;-73
2023/01/28 06:48:20;;;;;;;62.22;33.15;;;1.70;99.90;;;;;;5069365;28;20040;-72
2023/01/28 06:50:47;;;;;;;52.60;31.45;;;1.70;99.90;;;;;;5069628;28;20056;-73
2023/01/28 06:53:13;;;;;;;61.15;36.78;;;1.70;99.90;;;;;;5069745;28;20429;-73
2023/01/28 06:55:39;;;;;;;60.60;33.65;;;1.70;99.90;;;;;;5062386;28;20047;-73
2023/01/28 06:58:05;;;;;;;55.13;32.63;;;1.80;99.90;;;;;;5051934;28;20032;-73
2023/01/28 07:00:31;;;;;;;57.67;35.55;;;1.70;99.90;;;;;;5051491;28;20025;-73
2023/01/28 07:02:57;;;;;;;55.97;35.95;;;1.80;99.90;;;;;;5051756;28;20441;-73
2023/01/28 07:05:24;;;;;;;55.42;34.30;;;1.70;99.90;;;;;;5051449;28;20021;-73
2023/01/28 07:07:50;;;;;;;61.75;35.63;;;1.70;99.90;;;;;;5051875;28;20044;-73
2023/01/28 07:10:16;;;;;;;60.25;35.17;;;1.70;99.90;;;;;;5051532;28;20491;-73
2023/01/28 07:12:42;;;;;;;65.30;36.60;;;1.80;99.90;;;;;;5051739;28;20021;-73
2023/01/28 07:15:11;;;;;;;65.75;38.38;;;1.70;99.90;;;;;;5051684;28;20029;-73
2023/01/28 07:17:41;;;;;;;68.13;40.17;;;1.80;99.90;;;;;;5051179;28;20025;-73
2023/01/28 07:20:09;;;;;;;61.08;37.72;;;1.80;99.90;;;;;;5051546;28;20056;-73
2023/01/28 07:22:38;;;;;;;63.63;35.55;;;1.70;99.90;;;;;;5051304;28;20103;-73
2023/01/28 07:25:05;;;;;;;73.60;43.17;;;1.70;99.90;;;;;;5051412;28;20017;-73
2023/01/28 07:27:31;;;;;;;59.95;36.35;;;1.70;99.90;;;;;;5051361;28;20037;-73
2023/01/28 07:29:56;;;;;;;62.42;37.30;;;1.70;99.90;;;;;;5051832;28;20029;-73
2023/01/28 07:32:22;;;;;;;69.10;41.13;;;1.80;99.90;;;;;;5051818;28;20056;-73
2023/01/28 07:34:48;;;;;;;70.13;39.00;;;1.80;99.90;;;;;;5055393;28;20021;-73
2023/01/28 07:37:14;;;;;;;62.28;36.67;;;1.80;99.90;;;;;;5055271;28;20032;-73
2023/01/28 07:39:40;;;;;;;65.55;36.70;;;1.80;99.90;;;;;;5055230;28;20036;-73
2023/01/28 07:42:05;;;;;;;65.65;36.53;;;1.80;99.90;;;;;;5055170;28;20021;-73
2023/01/28 07:44:36;;;;;;;66.68;36.90;;;1.80;99.90;;;;;;5070402;28;20032;-73
2023/01/28 07:47:03;;;;;;;66.65;37.80;;;1.80;99.90;;;;;;5055045;28;20025;-73
2023/01/28 07:49:29;;;;;;;61.25;36.30;;;1.80;99.90;;;;;;5055086;28;20032;-73
2023/01/28 07:51:55;;;;;;;61.97;37.55;;;1.80;99.90;;;;;;5054793;28;20029;-73
2023/01/28 07:54:21;;;;;;;63.45;37.88;;;1.80;99.90;;;;;;5055037;28;20025;-73
2023/01/28 07:56:47;;;;;;;66.00;39.80;;;1.90;99.90;;;;;;5054575;28;20013;-73
2023/01/28 07:59:12;;;;;;;68.53;39.30;;;1.90;99.90;;;;;;5054883;28;20392;-73
2023/01/28 08:01:38;;;;;;;68.78;38.97;;;1.90;99.90;;;;;;5054542;28;20163;-73
2023/01/28 08:04:04;;;;;;;69.75;41.83;;;1.90;99.90;;;;;;5054831;28;20025;-73
2023/01/28 08:06:30;;;;;;;67.15;40.22;;;1.90;99.90;;;;;;5054507;28;20021;-73
2023/01/28 08:08:56;;;;;;;72.72;43.10;;;1.90;99.90;;;;;;5054808;28;20029;-73
2023/01/28 08:11:22;;;;;;;76.10;43.83;;;1.90;99.90;;;;;;5054410;28;20028;-73
2023/01/28 08:13:48;;;;;;;75.13;43.47;;;1.90;99.90;;;;;;5054929;28;20028;-73
2023/01/28 08:16:14;;;;;;;70.05;40.60;;;2.00;99.90;;;;;;5054281;28;20362;-74
2023/01/28 08:18:40;;;;;;;74.53;44.78;;;2.00;99.90;;;;;;5054315;28;20040;-73
2023/01/28 08:21:07;;;;;;;78.10;44.45;;;1.90;99.90;;;;;;5054383;28;20029;-73
2023/01/28 08:23:33;;;;;;;73.97;43.42;;;1.90;99.90;;;;;;5054221;28;20120;-73
2023/01/28 08:25:59;;;;;;;69.13;40.15;;;1.90;99.90;;;;;;5054307;28;20040;-73
2023/01/28 08:28:26;;;;;;;75.07;44.47;;;1.90;99.90;;;;;;5054470;28;20029;-73
2023/01/28 08:30:52;;;;;;;73.05;41.78;;;1.90;99.90;;;;;;5054846;28;20021;-73
2023/01/28 08:33:19;;;;;;;68.07;40.33;;;1.90;99.90;;;;;;5054463;28;20116;-73
2023/01/28 08:35:45;;;;;;;66.82;41.00;;;2.00;99.90;;;;;;5054290;28;20048;-73
2023/01/28 08:38:14;;;;;;;70.85;41.70;;;2.00;99.90;;;;;;5054228;28;20033;-73
2023/01/28 08:40:39;;;;;;;71.07;41.95;;;2.00;99.90;;;;;;5053779;28;20028;-73
2023/01/28 08:43:06;;;;;;;70.53;44.53;;;2.00;99.90;;;;;;5069221;28;20025;-74
2023/01/28 08:45:32;;;;;;;76.22;45.50;;;2.00;99.90;;;;;;5053765;28;20022;-73
2023/01/28 08:48:03;;;;;;;85.35;48.10;;;2.00;99.90;;;;;;5054310;28;20032;-74
2023/01/28 08:50:32;;;;;;;75.43;44.83;;;2.00;99.90;;;;;;5053559;28;20040;-73
2023/01/28 08:53:00;;;;;;;77.22;45.53;;;2.00;99.90;;;;;;5054081;28;20526;-73
2023/01/28 08:55:27;;;;;;;85.38;46.28;;;2.00;99.90;;;;;;5053581;28;20017;-73
2023/01/28 08:57:53;;;;;;;76.45;45.33;;;1.90;99.90;;;;;;5053726;28;20039;-73
2023/01/28 09:00:19;;;;;;;71.32;43.95;;;1.90;99.90;;;;;;5053578;28;20025;-73
2023/01/28 09:02:45;;;;;;;71.43;43.17;;;2.00;99.90;;;;;;5053524;28;20602;-73
2023/01/28 09:05:11;;;;;;;70.63;43.20;;;1.90;99.90;;;;;;5052179;28;20071;-73
2023/01/28 09:07:38;;;;;;;78.75;45.53;;;2.00;99.90;;;;;;5050755;28;20013;-73
2023/01/28 09:10:05;;;;;;;82.28;46.47;;;2.00;99.90;;;;;;5053702;28;20028;-73
2023/01/28 09:12:32;;;;;;;77.70;45.22;;;2.00;99.90;;;;;;5053227;28;20025;-73
2023/01/28 09:14:58;;;;;;;74.43;45.58;;;2.00;99.90;;;;;;5053541;28;20082;-73
2023/01/28 09:17:24;;;;;;;76.38;43.28;;;2.00;99.90;;;;;;5052975;28;20036;-74
2023/01/28 09:19:50;;;;;;;72.85;43.45;;;2.00;99.90;;;;;;5053306;28;20057;-74
2023/01/28 09:22:16;;;;;;;74.22;43.83;;;2.00;99.90;;;;;;5053210;28;20480;-74
2023/01/28 09:24:42;;;;;;;72.95;43.15;;;2.00;99.90;;;;;;5053296;28;20487;-73
2023/01/28 09:27:08;;;;;;;75.05;43.17;;;2.00;99.90;;;;;;5052991;28;20115;-73
2023/01/28 09:29:34;;;;;;;84.03;45.90;;;2.00;99.90;;;;;;5052856;28;20055;-73
2023/01/28 09:32:00;;;;;;;77.75;44.65;;;2.00;99.90;;;;;;5053557;28;20037;-73
2023/01/28 09:34:26;;;;;;;86.20;48.75;;;2.00;99.90;;;;;;5052915;28;20048;-73
2023/01/28 09:36:52;;;;;;;96.28;49.70;;;2.10;99.90;;;;;;5053045;28;20487;-73
2023/01/28 09:39:17;;;;;;;79.72;48.53;;;2.10;99.90;;;;;;5052816;28;20029;-73
2023/01/28 09:41:54;;;;;;;71.88;42.45;;;2.10;99.90;;;;;;5053118;28;20021;-73
2023/01/28 09:44:28;;;;;;;71.72;44.63;;;2.10;99.90;;;;;;5052595;28;20027;-73
2023/01/28 09:47:01;;;;;;;73.28;42.08;;;2.10;99.90;;;;;;5052725;28;20021;-73
2023/01/28 09:49:42;;;;;;;73.47;44.10;;;2.10;99.90;;;;;;5068179;28;20123;-74
2023/01/28 09:52:13;;;;;;;75.57;42.17;;;2.10;99.90;;;;;;5052300;28;20032;-73
2023/01/28 09:54:58;;;;;;;81.45;45.88;;;2.10;99.90;;;;;;5052576;28;20101;-73
2023/01/28 09:57:47;;;;;;;71.00;41.58;;;2.10;99.90;;;;;;5052553;28;20071;-73
2023/01/28 10:00:23;;;;;;;64.70;38.78;;;2.10;99.90;;;;;;5052005;28;20033;-74
2023/01/28 10:03:25;;;;;;;73.43;41.67;;;2.00;99.90;;;;;;5052197;28;20039;-74
2023/01/28 10:06:13;;;;;;;64.20;35.42;;;2.10;99.90;;;;;;5052352;28;20025;-73
2023/01/28 10:09:00;;;;;;;70.10;42.10;;;2.00;99.90;;;;;;5052511;28;20435;-74
2023/01/28 10:11:45;;;;;;;70.03;39.72;;;2.10;99.90;;;;;;5051119;28;20538;-74
2023/01/28 10:14:29;;;;;;;74.57;42.50;;;2.10;99.90;;;;;;5065846;28;20431;-73
2023/01/28 10:17:01;;;;;;;75.03;44.15;;;2.10;99.90;;;;;;5052159;28;20034;-73
2023/01/28 10:19:34;;;;;;;78.20;43.65;;;2.10;99.90;;;;;;5051951;28;20480;-73
2023/01/28 10:22:05;;;;;;;75.40;40.25;;;2.10;99.90;;;;;;5051898;28;20056;-74
2023/01/28 10:24:35;;;;;;;72.75;40.38;;;2.10;99.90;;;;;;5051930;28;20033;-74
2023/01/28 10:27:23;;;;;;;75.70;41.83;;;2.10;99.90;;;;;;5052149;28;20029;-74
2023/01/28 10:29:50;;;;;;;77.63;43.70;;;2.10;99.90;;;;;;5052065;28;20047;-73
2023/01/28 10:32:32;;;;;;;66.22;41.17;;;2.10;99.90;;;;;;5051695;28;20021;-74
2023/01/28 10:35:01;;;;;;;71.20;42.40;;;2.10;99.90;;;;;;5067543;28;20040;-73
2023/01/28 10:37:30;;;;;;;66.43;40.22;;;2.10;99.90;;;;;;5052189;28;20083;-74
2023/01/28 10:39:58;;;;;;;70.22;41.72;;;2.10;99.90;;;;;;5052159;28;20480;-74
2023/01/28 10:42:33;;;;;;;69.85;41.35;;;2.10;99.90;;;;;;5051384;28;20049;-74
2023/01/28 10:45:27;;;;;;;75.03;45.08;;;2.20;99.90;;;;;;5051705;28;20036;-73
2023/01/28 10:48:05;;;;;;;72.45;42.38;;;2.20;99.90;;;;;;5051682;28;20105;-73
2023/01/28 10:50:33;;;;;;;74.05;44.40;;;2.20;99.90;;;;;;5051425;28;20032;-73
2023/01/28 10:53:02;;;;;;;73.15;43.75;;;2.20;99.90;;;;;;5051396;28;20090;-73
2023/01/28 10:55:51;;;;;;;74.70;44.08;;;2.20;99.90;;;;;;5051841;28;20024;-73
2023/01/28 10:58:22;;;;;;;70.03;42.92;;;2.30;99.90;;;;;;5050794;28;20072;-73
2023/01/28 11:00:58;;;;;;;75.88;42.53;;;2.20;99.90;;;;;;5051406;28;20033;-73
2023/01/28 11:03:30;;;;;;;69.43;39.95;;;2.20;99.90;;;;;;5051508;28;20049;-73
2023/01/28 11:05:57;;;;;;;66.00;41.53;;;2.20;99.90;;;;;;5051545;28;20025;-73
2023/01/28 11:08:26;;;;;;;63.53;38.80;;;2.20;99.90;;;;;;5055030;28;20025;-73
2023/01/28 11:10:54;;;;;;;63.47;36.35;;;2.20;99.90;;;;;;5055413;28;20029;-73
2023/01/28 11:13:29;;;;;;;62.55;35.78;;;2.20;99.90;;;;;;5055755;28;20020;-73
2023/01/28 11:15:58;;;;;;;75.35;39.13;;;2.20;99.90;;;;;;5043948;28;20021;-73
2023/01/28 11:18:34;;;;;;;68.88;38.92;;;2.20;99.90;;;;;;5055154;28;20071;-73
2023/01/28 11:21:06;;;;;;;72.28;40.90;;;2.20;99.90;;;;;;5055908;28;20037;-73
2023/01/28 11:23:38;;;;;;;64.13;35.50;;;2.30;99.90;;;;;;5055172;28;20388;-73
2023/01/28 11:26:35;;;;;;;63.25;36.00;;;2.30;99.90;;;;;;5055615;28;20032;-73
2023/01/28 11:29:01;;;;;;;72.07;40.00;;;2.30;99.90;;;;;;4993917;28;20038;-73
2023/01/28 11:31:27;;;;;;;74.85;43.08;;;2.30;99.90;;;;;;4993520;28;20025;-73
2023/01/28 11:33:56;;;;;;;70.18;39.88;;;2.30;99.90;;;;;;4993655;28;20038;-73
2023/01/28 11:36:24;;;;;;;65.13;37.83;;;2.30;99.90;;;;;;4993697;28;20038;-73
2023/01/28 11:39:16;;;;;;;72.75;39.40;;;2.20;99.90;;;;;;4993597;28;20518;-73
2023/01/28 11:41:42;;;;;;;66.45;38.30;;;2.20;99.90;;;;;;4993382;28;20461;-73
2023/01/28 11:44:24;;;;;;;65.70;38.17;;;2.20;99.90;;;;;;4993251;28;20074;-73
2023/01/28 11:46:55;;;;;;;73.13;40.75;;;2.20;99.90;;;;;;4993476;28;20049;-72
2023/01/28 11:49:59;;;;;;;72.78;40.30;;;2.20;99.90;;;;;;4993473;28;20707;-73
2023/01/28 11:52:51;;;;;;;64.82;38.22;;;2.30;99.90;;;;;;4992700;28;20556;-73
2023/01/28 11:55:49;;;;;;;80.13;44.70;;;2.20;99.90;;;;;;4993550;28;20038;-73
2023/01/28 11:58:22;;;;;;;73.13;39.20;;;2.20;99.90;;;;;;4992844;28;20050;-73
2023/01/28 12:00:59;;;;;;;76.25;40.53;;;2.20;99.90;;;;;;4992987;28;20161;-73
2023/01/28 12:04:09;;;;;;;68.80;42.25;;;2.20;99.90;;;;;;4993450;28;20040;-73
2023/01/28 12:07:09;;;;;;;70.07;42.00;;;2.20;99.90;;;;;;5054577;28;20031;-73
2023/01/28 12:09:35;;;;;;;69.18;41.58;;;2.30;99.90;;;;;;5054843;28;20370;-73
2023/01/28 12:12:31;;;;;;;67.68;38.30;;;2.30;99.90;;;;;;5054303;28;20113;-73
2023/01/28 12:15:03;;;;;;;66.70;37.92;;;2.30;99.90;;;;;;5054230;28;20029;-73
2023/01/28 12:17:58;;;;;;;68.82;40.72;;;2.30;99.90;;;;;;5054639;28;20032;-73
2023/01/28 12:21:07;;;;;;;64.85;39.67;;;2.40;99.90;;;;;;5053452;28;20132;-74
2023/01/28 12:23:57;;;;;;;75.47;40.92;;;2.40;99.90;;;;;;5053314;28;20029;-71
2023/01/28 12:26:48;;;;;;;63.90;39.90;;;2.30;99.90;;;;;;5053663;28;20021;-72
2023/01/28 12:29:31;;;;;;;62.47;37.88;;;2.30;99.90;;;;;;5047843;28;20125;-70
2023/01/28 12:32:18;;;;;;;69.47;40.13;;;2.30;99.90;;;;;;5045948;28;20030;-70
2023/01/28 12:35:19;;;;;;;67.63;39.90;;;2.30;99.90;;;;;;5045231;28;20078;-71
2023/01/28 12:37:53;;;;;;;70.30;38.80;;;2.40;99.90;;;;;;5003099;28;20370;-72
2023/01/28 12:40:56;;;;;;;63.83;36.38;;;2.40;99.90;;;;;;5005452;28;20034;-71
2023/01/28 12:43:37;;;;;;;65.03;38.45;;;2.30;99.90;;;;;;5003800;28;20628;-73
2023/01/28 12:46:13;;;;;;;68.18;39.80;;;2.30;99.90;;;;;;5005976;28;20030;-71
2023/01/28 12:48:44;;;;;;;66.18;37.75;;;2.40;99.90;;;;;;5002739;28;20504;-72
2023/01/28 12:51:15;;;;;;;67.80;41.40;;;2.30;99.90;;;;;;5004739;28;20034;-71
2023/01/28 12:54:11;;;;;;;71.05;42.30;;;2.30;99.90;;;;;;5011425;28;20181;-74
2023/01/28 12:56:42;;;;;;;69.85;38.88;;;2.30;99.90;;;;;;5010641;28;20052;-72
2023/01/28 12:59:20;;;;;;;70.15;40.92;;;2.30;99.90;;;;;;5009048;28;20042;-71
2023/01/28 13:02:24;;;;;;;71.07;41.88;;;2.40;99.90;;;;;;5008970;28;20033;-72
2023/01/28 13:05:16;;;;;;;65.70;40.00;;;2.30;99.90;;;;;;4952284;28;20066;-71
2023/01/28 13:07:56;;;;;;;76.22;40.35;;;2.30;99.90;;;;;;4952802;28;20098;-72
2023/01/28 13:10:34;;;;;;;70.32;40.03;;;2.30;99.90;;;;;;4954375;29;20090;-70
2023/01/28 13:13:02;;;;;;;73.40;43.53;;;2.30;99.90;;;;;;4968664;28;20097;-72
2023/01/28 13:15:29;;;;;;;73.60;42.45;;;2.30;99.90;;;;;;4988065;28;20027;-69
2023/01/28 13:17:57;;;;;;;75.80;42.22;;;2.30;99.90;;;;;;4983250;28;20027;-72
2023/01/28 13:20:29;;;;;;;70.70;42.60;;;2.30;99.90;;;;;;4979234;28;20046;-71
2023/01/28 13:23:05;;;;;;;71.25;40.40;;;2.30;99.90;;;;;;4992664;28;20118;-72
2023/01/28 13:25:33;;;;;;;76.70;43.85;;;2.30;99.90;;;;;;4992474;28;20062;-74
2023/01/28 13:28:02;;;;;;;81.22;44.17;;;2.30;99.90;;;;;;4980079;28;20038;-73
2023/01/28 13:30:33;;;;;;;72.30;42.22;;;2.30;99.90;;;;;;4991556;28;20382;-72
2023/01/28 13:33:03;;;;;;;82.63;46.50;;;2.30;99.90;;;;;;4992725;28;20039;-73
2023/01/28 13:35:37;;;;;;;71.28;40.65;;;2.40;99.90;;;;;;4992184;28;20478;-73
2023/01/28 13:38:18;;;;;;;67.20;38.60;;;2.40;99.90;;;;;;5004478;28;20049;-74